Time;durP1;ratioP1;P1;durP2;ratioP2;P2;SDS_P1;SDS_P2;PMS_P1;PMS_P2;Temp;Humidity;BMP_temperature;BMP_pressure;BME280_temperature;BME280_humidity;BME280_pressure;Samples;Min_cycle;Max_cycle;Signal;HPM_P1;HPM_P2
2021/04/09 00:00:56;;;;;;;10.00;6.85;;;;;;;3.60;59.80;100978.38;4405123;32;33820;-79
2021/04/09 00:03:24;;;;;;;11.68;7.18;;;;;;;3.65;59.22;100982.06;4406057;32;34541;-79
2021/04/09 00:05:56;;;;;;;10.32;6.82;;;;;;;3.68;59.43;100987.34;4406212;32;34760;-78
2021/04/09 00:08:27;;;;;;;11.05;6.50;;;;;;;3.70;59.33;100985.72;4404541;32;33749;-79
2021/04/09 00:10:54;;;;;;;10.65;6.35;;;;;;;3.63;59.34;100992.28;4404490;32;34049;-78
2021/04/09 00:13:24;;;;;;;13.32;7.62;;;;;;;3.00;61.05;100997.81;4404100;32;35931;-78
2021/04/09 00:15:52;;;;;;;12.23;7.57;;;;;;;3.33;60.23;100989.16;4403945;32;35217;-79
2021/04/09 00:18:19;;;;;;;12.48;6.72;;;;;;;3.37;60.19;100997.91;4404533;32;33350;-79
2021/04/09 00:20:46;;;;;;;11.80;7.03;;;;;;;3.61;59.67;100990.47;4405357;32;34093;-78
2021/04/09 00:23:13;;;;;;;11.20;7.00;;;;;;;3.78;59.24;100986.97;4406219;32;34574;-79
2021/04/09 00:25:40;;;;;;;10.95;7.40;;;;;;;3.73;59.01;100991.88;4406165;32;34206;-77
2021/04/09 00:28:08;;;;;;;11.02;6.75;;;;;;;3.53;59.66;100996.91;4404840;32;34661;-79
2021/04/09 00:30:35;;;;;;;13.98;8.73;;;;;;;3.59;59.08;100994.66;4406498;32;34560;-77
2021/04/09 00:33:02;;;;;;;17.90;9.13;;;;;;;3.40;59.59;100985.16;4405839;32;36298;-77
2021/04/09 00:35:29;;;;;;;16.48;7.85;;;;;;;3.61;58.80;100991.34;4406014;32;34907;-79
2021/04/09 00:37:57;;;;;;;14.70;7.35;;;;;;;3.52;58.69;100990.03;4405954;32;33711;-79
2021/04/09 00:40:24;;;;;;;9.07;6.28;;;;;;;3.53;58.69;100984.94;4405558;32;33834;-79
2021/04/09 00:42:51;;;;;;;11.65;6.97;;;;;;;3.65;58.71;100984.62;4404215;32;34032;-78
2021/04/09 00:45:19;;;;;;;10.20;6.53;;;;;;;3.63;58.70;100984.56;4404739;32;33853;-80
2021/04/09 00:47:46;;;;;;;13.52;7.12;;;;;;;3.41;59.24;100987.84;4406082;32;33612;-79
2021/04/09 00:50:14;;;;;;;17.17;7.05;;;;;;;3.46;59.21;100993.19;4406382;32;35053;-79
2021/04/09 00:52:43;;;;;;;9.85;6.78;;;;;;;3.40;59.43;100993.78;4406130;32;34743;-79
2021/04/09 00:55:11;;;;;;;10.95;6.82;;;;;;;3.21;60.03;100988.56;4406072;32;34240;-79
2021/04/09 00:57:38;;;;;;;12.63;7.37;;;;;;;3.36;59.38;100991.88;4404665;32;34772;-79
2021/04/09 01:00:08;;;;;;;12.23;7.53;;;;;;;3.51;58.98;100990.84;4392532;32;34531;-78
2021/04/09 01:02:37;;;;;;;12.20;6.90;;;;;;;3.53;59.20;100982.37;4406047;32;34392;-79
2021/04/09 01:05:06;;;;;;;10.93;6.78;;;;;;;3.53;58.67;100986.63;4404538;32;35267;-79
2021/04/09 01:07:33;;;;;;;10.30;5.85;;;;;;;3.53;58.74;100986.63;4406146;32;33421;-78
2021/04/09 01:10:02;;;;;;;11.10;6.47;;;;;;;3.42;59.20;100989.59;4392554;32;34570;-79
2021/04/09 01:12:29;;;;;;;10.60;7.25;;;;;;;3.49;59.09;100989.87;4392573;32;34447;-79
2021/04/09 01:14:56;;;;;;;9.45;5.85;;;;;;;3.53;58.75;100994.34;4406103;32;34431;-80
2021/04/09 01:17:29;;;;;;;11.12;5.55;;;;;;;3.24;58.73;100993.88;4406165;32;34195;-79
2021/04/09 01:20:29;;;;;;;11.75;5.82;;;;;;;3.38;58.97;100989.37;4405076;32;35215;-79
2021/04/09 01:23:15;;;;;;;10.45;5.53;;;;;;;3.20;59.03;100988.50;4392398;32;35296;-77
2021/04/09 01:26:07;;;;;;;7.70;5.45;;;;;;;3.41;58.76;100986.94;4406031;32;34457;-79
2021/04/09 01:29:09;;;;;;;8.45;5.55;;;;;;;2.95;59.31;100980.44;4404959;32;33186;-79
2021/04/09 01:31:48;;;;;;;9.63;5.30;;;;;;;3.20;59.49;100981.69;4406240;32;34053;-80
2021/04/09 01:34:15;;;;;;;9.65;5.78;;;;;;;3.15;59.58;100985.72;4404916;32;34490;-79
2021/04/09 01:36:52;;;;;;;8.27;5.57;;;;;;;3.19;59.50;100981.59;4404892;32;34947;-80
2021/04/09 01:39:24;;;;;;;7.95;5.47;;;;;;;3.37;59.22;100975.66;4406038;32;33320;-80
2021/04/09 01:41:53;;;;;;;7.45;5.32;;;;;;;3.46;58.73;100974.31;4405912;32;34555;-79
2021/04/09 01:44:25;;;;;;;9.70;5.43;;;;;;;3.24;59.08;100973.28;4392344;32;36081;-79
2021/04/09 01:46:54;;;;;;;8.05;5.10;;;;;;;3.39;58.74;100984.31;4392440;32;34628;-79
2021/04/09 01:49:23;;;;;;;8.70;5.72;;;;;;;3.28;59.01;100977.75;4405940;32;33460;-77
2021/04/09 01:51:52;;;;;;;12.13;5.80;;;;;;;3.39;58.76;100984.31;4404805;32;35166;-78
2021/04/09 01:54:21;;;;;;;8.50;5.35;;;;;;;3.26;59.05;100981.97;4404561;32;35082;-79
2021/04/09 01:56:48;;;;;;;9.45;5.15;;;;;;;3.11;59.12;100977.78;4391633;32;33937;-79
2021/04/09 01:59:18;;;;;;;9.55;5.82;;;;;;;3.29;58.73;100982.13;4404584;32;34267;-79
2021/04/09 02:01:47;;;;;;;7.20;5.45;;;;;;;3.26;58.39;100978.50;4404987;32;33752;-79
2021/04/09 02:04:21;;;;;;;9.77;5.72;;;;;;;3.07;59.02;100975.84;4405816;32;35487;-79
2021/04/09 02:06:51;;;;;;;9.65;5.45;;;;;;;3.32;58.23;100971.97;4404546;32;34335;-79
2021/04/09 02:09:18;;;;;;;9.05;5.43;;;;;;;3.00;58.94;100981.50;4404760;32;34461;-79
2021/04/09 02:11:46;;;;;;;9.43;5.40;;;;;;;3.03;59.05;100974.84;4405654;32;34391;-79
2021/04/09 02:14:15;;;;;;;7.80;5.40;;;;;;;3.20;57.86;100975.66;4404901;32;34496;-80
2021/04/09 02:16:43;;;;;;;8.93;5.68;;;;;;;3.14;58.12;100976.22;4390667;32;34737;-79
2021/04/09 02:19:11;;;;;;;11.20;5.82;;;;;;;3.25;58.01;100969.94;4404684;32;33496;-79
2021/04/09 02:21:38;;;;;;;9.50;5.05;;;;;;;2.97;58.90;100974.53;4405556;32;34539;-77
2021/04/09 02:24:09;;;;;;;9.23;5.85;;;;;;;3.07;57.88;100963.91;4405684;32;34456;-78
2021/04/09 02:26:37;;;;;;;8.40;5.75;;;;;;;3.05;58.41;100967.19;4404537;32;34797;-77
2021/04/09 02:29:05;;;;;;;7.37;5.28;;;;;;;2.82;59.40;100973.81;4405622;32;33625;-79
2021/04/09 02:31:33;;;;;;;11.00;6.28;;;;;;;2.80;59.43;100967.72;4391865;32;33944;-78
2021/04/09 02:34:00;;;;;;;11.23;6.15;;;;;;;2.79;59.85;100971.09;4405586;32;34593;-79
2021/04/09 02:36:29;;;;;;;9.70;6.05;;;;;;;2.87;59.25;100969.78;4405569;32;35033;-79
2021/04/09 02:39:05;;;;;;;8.10;5.80;;;;;;;2.88;59.20;100981.81;4404476;32;33507;-79
2021/04/09 02:41:37;;;;;;;8.60;5.60;;;;;;;3.05;58.53;100970.66;4405623;32;33887;-77
2021/04/09 02:44:04;;;;;;;8.27;5.80;;;;;;;2.84;58.97;100986.72;4404641;32;35770;-80
2021/04/09 02:46:38;;;;;;;7.95;5.20;;;;;;;2.96;58.32;100977.94;4404195;32;33613;-80
2021/04/09 02:49:31;;;;;;;10.20;5.68;;;;;;;2.79;58.82;100976.22;4379457;32;34876;-79
2021/04/09 02:52:00;;;;;;;9.95;5.45;;;;;;;2.87;58.46;100980.06;4405555;32;34093;-80
2021/04/09 02:54:29;;;;;;;11.43;5.68;;;;;;;2.96;58.47;100974.47;4405564;32;34829;-77
2021/04/09 02:56:57;;;;;;;11.07;6.18;;;;;;;2.85;58.55;100981.69;4405081;32;35227;-80
2021/04/09 02:59:27;;;;;;;8.05;5.15;;;;;;;3.04;57.72;100976.63;4404570;32;33735;-79
2021/04/09 03:01:56;;;;;;;11.75;5.80;;;;;;;2.85;58.42;100981.69;4391775;32;33732;-80
2021/04/09 03:04:23;;;;;;;11.77;6.53;;;;;;;2.97;58.11;100982.25;4392003;32;34683;-80
2021/04/09 03:06:50;;;;;;;10.05;7.25;;;;;;;2.97;58.20;100987.38;4391968;32;35134;-80
2021/04/09 03:09:18;;;;;;;11.38;6.97;;;;;;;2.83;57.91;100992.69;4404114;32;33992;-80
2021/04/09 03:11:46;;;;;;;12.13;6.60;;;;;;;2.55;58.86;100990.41;4405465;32;34125;-79
2021/04/09 03:14:13;;;;;;;12.20;6.20;;;;;;;2.69;58.59;100991.97;4405493;32;34743;-80
2021/04/09 03:16:53;;;;;;;11.02;7.20;;;;;;;2.56;59.38;100989.63;4405325;32;34728;-78
2021/04/09 03:19:20;;;;;;;11.60;6.90;;;;;;;2.88;58.11;100992.09;4391639;32;33382;-79
2021/04/09 03:21:47;;;;;;;13.20;8.65;;;;;;;2.88;58.49;100992.09;4405228;32;33666;-79
2021/04/09 03:24:14;;;;;;;12.20;7.72;;;;;;;2.72;58.33;100989.56;4391788;32;34740;-80
2021/04/09 03:26:41;;;;;;;10.70;7.25;;;;;;;2.79;58.32;100990.75;4404657;32;33808;-79
2021/04/09 03:29:09;;;;;;;12.02;7.25;;;;;;;2.88;57.81;100991.19;4407636;32;33994;-78
2021/04/09 03:31:36;;;;;;;13.02;6.97;;;;;;;2.76;58.19;100991.47;4407469;32;34504;-79
2021/04/09 03:34:04;;;;;;;11.25;6.97;;;;;;;2.70;58.03;100996.31;4393718;32;35532;-79
2021/04/09 03:36:31;;;;;;;12.23;6.80;;;;;;;2.78;57.64;100994.13;4393701;32;34679;-79
2021/04/09 03:38:58;;;;;;;12.10;6.85;;;;;;;2.77;57.59;100993.25;4406564;32;34245;-79
2021/04/09 03:41:26;;;;;;;11.05;6.70;;;;;;;2.81;57.25;100984.88;4407295;32;33989;-80
2021/04/09 03:44:10;;;;;;;12.52;6.60;;;;;;;2.69;57.89;100997.13;4407248;32;35748;-80
2021/04/09 03:46:37;;;;;;;10.20;7.15;;;;;;;2.40;58.40;100994.78;4407174;32;35209;-80
2021/04/09 03:49:05;;;;;;;14.32;7.68;;;;;;;2.25;59.06;101000.03;4407252;32;34760;-79
2021/04/09 03:51:32;;;;;;;11.75;6.82;;;;;;;2.18;59.26;100995.38;4407407;32;33735;-79
2021/04/09 03:53:59;;;;;;;14.57;8.30;;;;;;;2.41;58.40;100988.84;4407161;32;34442;-80
2021/04/09 03:56:26;;;;;;;12.20;7.28;;;;;;;2.35;58.72;100983.41;4407076;32;34685;-78
2021/04/09 03:58:53;;;;;;;14.00;7.50;;;;;;;2.59;57.93;100992.34;4393259;32;34859;-80
2021/04/09 04:01:25;;;;;;;14.87;8.00;;;;;;;2.64;57.71;100996.87;4392079;32;34177;-80
2021/04/09 04:03:55;;;;;;;15.65;7.72;;;;;;;2.45;58.33;100995.91;4391924;32;34529;-80
2021/04/09 04:06:22;;;;;;;15.23;8.32;;;;;;;2.22;59.01;100993.81;4392375;32;34469;-80
2021/04/09 04:08:49;;;;;;;16.85;7.35;;;;;;;2.09;59.35;100999.16;4392146;32;33632;-80
2021/04/09 04:11:17;;;;;;;12.75;8.27;;;;;;;2.22;58.90;100993.81;4391916;32;34704;-79
2021/04/09 04:13:44;;;;;;;18.65;8.27;;;;;;;2.20;59.00;100996.31;4391107;32;35377;-80
2021/04/09 04:16:12;;;;;;;16.05;7.55;;;;;;;2.39;58.13;100995.56;4392026;32;34480;-77
2021/04/09 04:18:39;;;;;;;15.15;7.75;;;;;;;2.19;58.67;101003.97;4392021;32;33030;-79
2021/04/09 04:21:06;;;;;;;18.77;7.75;;;;;;;2.30;58.42;101000.25;4391982;32;34071;-80
2021/04/09 04:23:33;;;;;;;11.12;7.32;;;;;;;2.49;57.82;101000.38;4391969;32;34656;-78
2021/04/09 04:26:01;;;;;;;14.60;7.60;;;;;;;2.19;58.43;101007.38;4391920;32;35307;-78
2021/04/09 04:28:28;;;;;;;18.45;8.65;;;;;;;2.17;58.56;101000.41;4391727;32;33175;-79
2021/04/09 04:30:55;;;;;;;15.20;8.57;;;;;;;2.16;58.91;101003.78;4391807;32;33825;-80
2021/04/09 04:33:24;;;;;;;16.42;8.73;;;;;;;2.41;58.40;101007.69;4391917;32;35748;-80
2021/04/09 04:35:52;;;;;;;17.58;8.45;;;;;;;2.35;58.58;101003.94;4378232;32;34211;-80
2021/04/09 04:38:20;;;;;;;12.73;7.57;;;;;;;2.40;58.03;101005.06;4391303;32;33724;-80
2021/04/09 04:40:48;;;;;;;14.95;8.85;;;;;;;2.32;58.68;101006.34;4390683;32;33697;-80
2021/04/09 04:43:16;;;;;;;16.92;9.13;;;;;;;2.44;58.34;101002.72;4378270;32;34219;-80
2021/04/09 04:45:43;;;;;;;19.17;8.98;;;;;;;2.45;58.18;101003.63;4391556;32;34881;-81
2021/04/09 04:48:11;;;;;;;18.45;9.60;;;;;;;2.47;58.29;101012.28;4391641;32;33853;-80
2021/04/09 04:50:38;;;;;;;18.95;10.25;;;;;;;2.68;57.44;101018.50;4391605;32;35067;-81
2021/04/09 04:53:05;;;;;;;24.83;10.85;;;;;;;2.69;57.82;101021.13;4385974;32;34901;-79
2021/04/09 04:55:32;;;;;;;19.92;11.43;;;;;;;2.54;58.44;101019.47;4369324;32;33870;-79
2021/04/09 04:58:00;;;;;;;27.70;12.50;;;;;;;2.27;59.48;101023.19;4380853;32;33005;-79
2021/04/09 05:00:27;;;;;;;21.05;11.10;;;;;;;2.35;59.44;101033.06;4388842;32;33005;-80
2021/04/09 05:02:54;;;;;;;22.02;10.52;;;;;;;2.77;58.07;101024.09;4392055;32;34742;-79
2021/04/09 05:05:21;;;;;;;20.92;10.98;;;;;;;2.68;58.18;101027.09;4391848;32;34152;-80
2021/04/09 05:07:48;;;;;;;22.15;12.13;;;;;;;2.74;58.18;101029.06;4391366;32;33434;-80
2021/04/09 05:10:16;;;;;;;22.13;10.00;;;;;;;2.93;57.90;101031.75;4388442;32;34545;-80
2021/04/09 05:12:44;;;;;;;19.10;10.68;;;;;;;2.78;58.07;101033.56;4391312;32;34382;-80
2021/04/09 05:15:14;;;;;;;24.75;11.02;;;;;;;2.90;58.18;101041.84;4391408;32;34137;-79
2021/04/09 05:17:42;;;;;;;25.52;11.35;;;;;;;3.02;57.91;101036.47;4390791;32;34139;-79
2021/04/09 05:20:09;;;;;;;21.58;10.98;;;;;;;3.24;57.14;101031.53;4391742;32;34374;-80
2021/04/09 05:22:36;;;;;;;19.90;10.68;;;;;;;3.28;57.39;101033.47;4376871;32;34645;-80
2021/04/09 05:25:04;;;;;;;22.50;11.25;;;;;;;3.63;56.64;101037.72;4391081;32;36290;-80
2021/04/09 05:27:32;;;;;;;23.65;11.12;;;;;;;3.82;55.65;101032.59;4376820;32;33284;-78
2021/04/09 05:29:59;;;;;;;25.40;11.88;;;;;;;4.00;55.46;101036.91;4391885;32;34584;-79
2021/04/09 05:32:28;;;;;;;22.83;11.68;;;;;;;3.94;55.33;101044.34;4390899;32;34563;-80
2021/04/09 05:34:55;;;;;;;22.52;11.48;;;;;;;4.12;54.51;101044.28;4390145;32;34153;-79
2021/04/09 05:37:23;;;;;;;21.20;11.57;;;;;;;4.26;54.40;101047.47;4391410;32;34349;-78
2021/04/09 05:39:50;;;;;;;22.77;11.85;;;;;;;4.38;54.43;101036.03;4391078;32;33915;-80
2021/04/09 05:42:18;;;;;;;21.75;12.43;;;;;;;4.66;53.85;101040.66;4377724;32;34562;-79
2021/04/09 05:44:45;;;;;;;20.55;12.48;;;;;;;4.97;53.68;101053.19;4391243;32;33927;-79
2021/04/09 05:47:13;;;;;;;25.40;12.82;;;;;;;5.09;53.27;101051.97;4390979;32;33400;-79
2021/04/09 05:49:40;;;;;;;24.33;13.65;;;;;;;5.18;52.96;101047.19;4391119;32;35143;-78
2021/04/09 05:52:08;;;;;;;23.45;12.98;;;;;;;5.29;52.84;101050.22;4391055;32;35775;-78
2021/04/09 05:54:37;;;;;;;27.23;13.50;;;;;;;5.45;52.62;101050.87;4390546;32;35603;-79
2021/04/09 05:57:05;;;;;;;29.55;13.68;;;;;;;5.69;52.26;101044.94;4377991;32;34715;-79
2021/04/09 05:59:32;;;;;;;29.90;15.38;;;;;;;5.78;52.36;101046.16;4390572;32;34033;-79
2021/04/09 06:02:00;;;;;;;29.33;16.00;;;;;;;6.06;51.67;101043.81;4390824;32;35574;-79
2021/04/09 06:04:27;;;;;;;30.83;17.48;;;;;;;5.96;51.91;101046.91;4390954;32;34018;-79
2021/04/09 06:06:54;;;;;;;27.55;16.30;;;;;;;5.97;52.39;101038.31;4391211;32;33553;-78
2021/04/09 06:09:25;;;;;;;25.52;15.88;;;;;;;6.17;51.89;101045.94;4389069;32;33289;-78
2021/04/09 06:11:52;;;;;;;28.40;16.17;;;;;;;6.36;51.36;101053.53;4389274;32;34773;-78
2021/04/09 06:14:20;;;;;;;31.67;16.90;;;;;;;6.43;51.49;101038.31;4389957;32;34432;-79
2021/04/09 06:16:47;;;;;;;24.20;15.32;;;;;;;6.48;50.99;101047.13;4390326;32;34733;-77
2021/04/09 06:19:14;;;;;;;24.00;15.43;;;;;;;6.18;51.98;101043.41;4390694;32;34131;-78
2021/04/09 06:21:41;;;;;;;24.98;14.60;;;;;;;6.57;51.93;101042.28;4389401;32;34437;-78
2021/04/09 06:24:10;;;;;;;24.80;14.68;;;;;;;7.01;50.59;101049.00;4387970;32;35293;-79
2021/04/09 06:26:37;;;;;;;26.30;14.82;;;;;;;7.01;50.42;101042.94;4389657;32;33910;-79
2021/04/09 06:29:04;;;;;;;22.90;13.95;;;;;;;7.09;50.43;101047.50;4389506;32;33796;-78
2021/04/09 06:31:32;;;;;;;22.77;14.07;;;;;;;7.26;50.37;101043.78;4388978;32;34729;-78
2021/04/09 06:33:59;;;;;;;21.42;13.25;;;;;;;6.82;50.94;101041.44;4391008;32;34173;-79
2021/04/09 06:36:26;;;;;;;23.98;13.98;;;;;;;7.46;50.04;101040.09;4391023;32;33854;-79
2021/04/09 06:38:53;;;;;;;24.08;13.73;;;;;;;7.90;48.85;101033.72;4387979;32;33990;-78
2021/04/09 06:41:21;;;;;;;26.90;13.93;;;;;;;7.53;49.09;101037.72;4389643;32;34132;-78
2021/04/09 06:43:48;;;;;;;24.73;13.38;;;;;;;8.04;48.54;101037.59;4388833;32;34020;-79
2021/04/09 06:46:16;;;;;;;24.77;12.95;;;;;;;8.13;47.90;101034.38;4376266;32;34272;-79
2021/04/09 06:48:43;;;;;;;17.10;11.10;;;;;;;8.44;47.71;101033.59;4389287;32;34582;-78
2021/04/09 06:51:12;;;;;;;17.83;12.35;;;;;;;8.70;46.45;101043.81;4387922;32;34980;-78
2021/04/09 06:53:44;;;;;;;18.92;12.07;;;;;;;8.73;46.66;101037.84;4364607;32;33864;-78
2021/04/09 06:56:13;;;;;;;18.15;12.13;;;;;;;9.07;45.36;101039.59;4373977;32;35146;-78
2021/04/09 06:58:40;;;;;;;16.67;9.35;;;;;;;9.28;45.13;101043.63;4374481;32;33916;-78
2021/04/09 07:01:07;;;;;;;13.85;8.50;;;;;;;9.58;43.05;101038.25;4387527;32;35038;-79
2021/04/09 07:03:35;;;;;;;14.50;9.40;;;;;;;9.59;42.01;101040.03;4376615;32;33915;-78
2021/04/09 07:06:03;;;;;;;13.52;8.60;;;;;;;9.83;41.98;101040.59;4386176;32;33263;-78
2021/04/09 07:08:30;;;;;;;17.02;10.32;;;;;;;9.53;41.08;101047.69;4386590;32;33763;-78
2021/04/09 07:10:57;;;;;;;13.48;9.27;;;;;;;9.19;42.08;101046.00;4383186;32;35251;-78
2021/04/09 07:13:24;;;;;;;14.70;8.60;;;;;;;9.14;41.72;101051.88;4385889;32;34507;-78
2021/04/09 07:15:51;;;;;;;14.68;8.88;;;;;;;9.20;41.65;101049.47;4389475;32;33762;-78
2021/04/09 07:18:19;;;;;;;14.98;8.32;;;;;;;9.03;41.88;101045.56;4389218;32;34743;-77
2021/04/09 07:20:46;;;;;;;9.23;7.00;;;;;;;8.94;41.74;101042.75;4390784;32;35789;-78
2021/04/09 07:23:13;;;;;;;12.37;8.13;;;;;;;9.36;43.82;101041.22;4388690;32;35344;-78
2021/04/09 07:25:42;;;;;;;15.57;8.68;;;;;;;8.97;42.42;101043.69;4389350;32;33303;-78
2021/04/09 07:28:17;;;;;;;13.25;8.80;;;;;;;9.62;40.71;101045.31;4376359;32;34701;-78
2021/04/09 07:30:50;;;;;;;14.18;8.55;;;;;;;9.84;41.11;101038.88;4375757;32;34264;-77
2021/04/09 07:33:24;;;;;;;13.32;8.27;;;;;;;10.05;39.61;101040.22;4376169;32;34344;-78
2021/04/09 07:35:56;;;;;;;17.92;9.48;;;;;;;9.80;41.21;101037.91;4388815;32;32992;-78
2021/04/09 07:38:29;;;;;;;13.80;9.52;;;;;;;10.00;41.39;101036.66;4376260;32;34446;-78
2021/04/09 07:41:04;;;;;;;15.15;11.20;;;;;;;10.19;43.80;101033.63;4376091;32;35283;-79
2021/04/09 07:43:32;;;;;;;20.27;10.95;;;;;;;10.14;41.51;101031.75;4390598;32;34191;-79
2021/04/09 07:46:02;;;;;;;17.62;11.73;;;;;;;10.50;40.98;101029.03;4405541;32;34744;-78
2021/04/09 07:48:34;;;;;;;17.35;11.40;;;;;;;10.05;42.00;101028.94;4405121;32;34334;-78
2021/04/09 07:51:04;;;;;;;18.25;11.98;;;;;;;9.99;42.32;101031.41;4392486;32;34514;-78
2021/04/09 07:53:31;;;;;;;17.58;12.52;;;;;;;10.22;41.78;101024.13;4405047;32;34094;-78
2021/04/09 07:56:06;;;;;;;19.25;12.07;;;;;;;10.08;42.50;101022.06;4391937;32;33542;-78
2021/04/09 07:58:35;;;;;;;16.10;10.82;;;;;;;10.38;41.32;101023.59;4402208;32;34216;-78
2021/04/09 08:01:04;;;;;;;15.63;11.18;;;;;;;10.65;41.21;101024.13;4390132;32;35799;-78
2021/04/09 08:03:32;;;;;;;16.37;10.95;;;;;;;10.56;41.11;101024.81;4389581;32;34346;-78
2021/04/09 08:06:07;;;;;;;13.85;9.50;;;;;;;10.64;40.61;101027.56;4378561;32;34261;-78
2021/04/09 08:08:36;;;;;;;19.17;10.93;;;;;;;11.05;39.64;101024.00;4374394;32;34271;-77
2021/04/09 08:11:32;;;;;;;15.50;10.18;;;;;;;10.47;40.94;101027.25;4373030;32;35001;-78
2021/04/09 08:14:04;;;;;;;14.93;10.40;;;;;;;10.81;41.09;101027.03;4384527;32;34235;-78
2021/04/09 08:16:36;;;;;;;14.43;9.27;;;;;;;10.74;41.02;101024.28;4389618;32;34801;-78
2021/04/09 08:19:09;;;;;;;17.77;8.35;;;;;;;10.92;39.98;101024.63;4389078;32;35111;-78
2021/04/09 08:21:38;;;;;;;10.60;7.43;;;;;;;10.82;39.54;101023.56;4389542;32;34669;-78
2021/04/09 08:24:08;;;;;;;12.93;7.85;;;;;;;10.38;39.56;101024.47;4375732;32;35294;-78
2021/04/09 08:26:37;;;;;;;14.10;8.52;;;;;;;10.55;39.44;101030.00;4389629;32;33510;-78
2021/04/09 08:29:10;;;;;;;13.62;8.80;;;;;;;10.04;40.73;101020.25;4390448;32;35169;-78
2021/04/09 08:31:39;;;;;;;15.60;7.82;;;;;;;10.49;40.55;101011.66;4390988;32;34771;-78
2021/04/09 08:34:10;;;;;;;12.25;7.53;;;;;;;10.42;39.94;101020.19;4390556;32;34088;-77
2021/04/09 08:36:39;;;;;;;14.48;7.72;;;;;;;10.61;40.32;101014.50;4388963;32;33500;-77
2021/04/09 08:39:10;;;;;;;7.60;6.32;;;;;;;10.68;39.63;101016.34;4386041;32;34345;-78
2021/04/09 08:41:38;;;;;;;10.98;6.62;;;;;;;10.74;39.25;101008.69;4384988;32;34399;-78
2021/04/09 08:44:07;;;;;;;10.82;7.05;;;;;;;11.03;38.86;101012.66;4374579;32;35537;-78
2021/04/09 08:46:35;;;;;;;9.35;6.22;;;;;;;10.70;39.76;101012.94;4379029;32;34896;-78
2021/04/09 08:49:08;;;;;;;10.40;6.75;;;;;;;11.10;39.12;101008.44;4388599;32;34444;-77
2021/04/09 08:51:39;;;;;;;12.80;7.97;;;;;;;11.06;39.07;101010.09;4375648;32;34703;-78
2021/04/09 08:54:19;;;;;;;10.23;6.60;;;;;;;10.74;40.42;101004.34;4388310;32;34833;-78
2021/04/09 08:56:47;;;;;;;15.98;7.70;;;;;;;10.98;39.95;101006.53;4389561;32;33730;-78
2021/04/09 08:59:14;;;;;;;10.82;6.75;;;;;;;10.97;40.14;101004.75;4376329;32;33961;-78
2021/04/09 09:01:41;;;;;;;9.45;7.10;;;;;;;11.20;40.00;101007.72;4387452;32;34460;-77
2021/04/09 09:04:21;;;;;;;10.60;6.53;;;;;;;11.29;39.35;100995.72;4389234;32;34102;-78
2021/04/09 09:06:49;;;;;;;9.90;6.80;;;;;;;11.20;39.42;100995.59;4358949;32;33819;-78
2021/04/09 09:09:27;;;;;;;13.70;7.62;;;;;;;10.99;39.67;100989.16;4360014;32;34074;-78
2021/04/09 09:12:00;;;;;;;10.55;7.30;;;;;;;11.02;39.81;100987.50;4357878;32;34439;-78
2021/04/09 09:14:33;;;;;;;12.37;7.12;;;;;;;11.30;39.79;100987.06;4358641;32;33874;-78
2021/04/09 09:17:17;;;;;;;13.68;7.50;;;;;;;11.30;39.76;100991.41;4358373;32;34733;-78
2021/04/09 09:19:46;;;;;;;16.77;8.45;;;;;;;11.16;40.04;100983.38;4369783;32;33837;-78
2021/04/09 09:22:15;;;;;;;17.23;8.50;;;;;;;11.21;39.37;100970.44;4374311;32;34298;-78
2021/04/09 09:25:04;;;;;;;17.12;8.38;;;;;;;12.03;38.37;100972.50;4373665;32;35668;-78
2021/04/09 09:27:51;;;;;;;14.13;8.35;;;;;;;11.68;39.44;100976.37;4360258;32;34203;-78
2021/04/09 09:30:27;;;;;;;12.85;7.75;;;;;;;11.72;38.02;100959.94;4373559;32;33904;-78
2021/04/09 09:33:29;;;;;;;15.38;7.75;;;;;;;11.93;37.54;100960.22;4374306;32;35784;-78
2021/04/09 09:36:04;;;;;;;14.87;8.15;;;;;;;12.24;37.17;100955.37;4361491;32;34098;-78
2021/04/09 09:38:57;;;;;;;13.35;7.32;;;;;;;12.37;35.69;100964.22;4364637;32;34258;-78
2021/04/09 09:41:44;;;;;;;14.18;7.72;;;;;;;12.39;35.36;100945.94;4360018;32;34521;-78
2021/04/09 09:44:30;;;;;;;13.73;6.85;;;;;;;12.38;35.91;100942.50;4346345;32;34369;-78
2021/04/09 09:46:58;;;;;;;8.45;5.20;;;;;;;12.33;34.90;100949.41;4359752;32;35308;-78
2021/04/09 09:49:28;;;;;;;8.70;4.53;;;;;;;12.28;33.07;100942.37;4358977;32;34289;-78
2021/04/09 09:51:55;;;;;;;7.87;4.57;;;;;;;12.29;32.75;100936.31;4358071;32;33783;-78
2021/04/09 09:54:30;;;;;;;8.00;4.80;;;;;;;12.89;32.84;100923.81;4368227;32;34814;-75
2021/04/09 09:57:17;;;;;;;8.70;4.30;;;;;;;12.93;31.96;100911.69;4361287;32;34329;-78
2021/04/09 09:59:44;;;;;;;8.40;4.35;;;;;;;12.43;32.46;100926.88;4374235;32;34437;-78
2021/04/09 10:02:17;;;;;;;9.60;4.30;;;;;;;12.87;31.17;100907.28;4373813;32;33977;-77
2021/04/09 10:04:45;;;;;;;9.05;4.87;;;;;;;12.82;31.77;100907.22;4376786;32;35171;-78
2021/04/09 10:07:12;;;;;;;7.50;4.50;;;;;;;13.08;31.71;100907.47;4389907;32;34242;-78
2021/04/09 10:09:40;;;;;;;7.78;4.20;;;;;;;13.39;32.08;100900.69;4390320;32;33715;-78
2021/04/09 10:12:08;;;;;;;6.75;3.78;;;;;;;13.33;30.33;100895.44;4388769;32;33832;-79
2021/04/09 10:14:42;;;;;;;6.57;3.83;;;;;;;12.78;30.78;100894.16;4372137;32;34513;-78
2021/04/09 10:17:10;;;;;;;6.47;3.80;;;;;;;13.18;30.50;100880.53;4370510;32;33843;-78
2021/04/09 10:19:37;;;;;;;9.18;3.60;;;;;;;13.33;29.75;100875.44;4376273;32;34013;-77
2021/04/09 10:22:04;;;;;;;5.75;3.30;;;;;;;13.03;30.22;100866.47;4375894;32;34261;-78
2021/04/09 10:24:38;;;;;;;6.50;3.42;;;;;;;12.68;30.38;100863.59;4374491;32;34415;-78
2021/04/09 10:27:10;;;;;;;5.93;3.62;;;;;;;12.80;30.43;100856.75;4374022;32;33956;-78
2021/04/09 10:29:38;;;;;;;9.65;3.47;;;;;;;13.01;30.25;100860.34;4375164;32;33297;-78
2021/04/09 10:32:14;;;;;;;6.03;3.85;;;;;;;13.07;29.26;100855.22;4373087;32;33898;-78
2021/04/09 10:34:41;;;;;;;6.55;3.53;;;;;;;12.74;29.82;100845.41;4373058;32;34389;-77
2021/04/09 10:37:19;;;;;;;10.68;4.20;;;;;;;12.83;29.66;100845.47;4373131;32;33986;-77
2021/04/09 10:39:46;;;;;;;7.65;3.65;;;;;;;12.91;29.99;100855.06;4362828;32;34388;-78
2021/04/09 10:42:13;;;;;;;6.37;3.83;;;;;;;13.13;29.33;100843.06;4375146;32;33848;-78
2021/04/09 10:44:40;;;;;;;5.95;3.33;;;;;;;13.53;29.45;100833.69;4361519;32;34214;-79
2021/04/09 10:47:09;;;;;;;8.52;3.85;;;;;;;13.46;28.57;100834.53;4375667;32;34302;-78
2021/04/09 10:49:42;;;;;;;7.03;3.97;;;;;;;13.21;28.78;100828.31;4375828;32;33347;-78
2021/04/09 10:52:17;;;;;;;7.30;4.05;;;;;;;13.35;29.03;100826.66;4375668;32;33914;-78
2021/04/09 10:54:46;;;;;;;7.32;4.20;;;;;;;13.87;29.03;100821.59;4362189;32;34783;-78
2021/04/09 10:57:20;;;;;;;7.47;4.07;;;;;;;13.63;29.71;100818.91;4362399;32;34571;-78
2021/04/09 10:59:52;;;;;;;8.50;3.33;;;;;;;14.17;28.62;100805.97;4376743;32;34956;-78
2021/04/09 11:02:24;;;;;;;7.12;4.20;;;;;;;14.39;27.77;100807.75;4374857;32;33791;-79
2021/04/09 11:04:56;;;;;;;7.68;3.78;;;;;;;13.92;27.80;100804.19;4376399;32;34485;-79
2021/04/09 11:07:46;;;;;;;8.18;4.72;;;;;;;13.86;28.23;100793.72;4363393;32;33983;-79
2021/04/09 11:10:36;;;;;;;9.55;4.37;;;;;;;13.87;27.69;100791.09;4377376;32;33392;-78
2021/04/09 11:13:07;;;;;;;11.50;4.45;;;;;;;14.12;28.37;100795.50;4389445;32;33999;-78
2021/04/09 11:15:41;;;;;;;7.57;4.25;;;;;;;13.69;28.36;100795.41;4393108;32;35766;-78
2021/04/09 11:18:09;;;;;;;6.95;4.25;;;;;;;13.77;28.95;100784.09;4393091;32;34026;-77
2021/04/09 11:20:44;;;;;;;8.27;4.18;;;;;;;14.09;27.41;100769.34;4391700;32;32775;-77
2021/04/09 11:23:16;;;;;;;9.60;4.50;;;;;;;14.41;27.46;100769.37;4379303;32;33862;-77
2021/04/09 11:25:45;;;;;;;8.05;4.97;;;;;;;14.08;27.96;100777.19;4371613;32;34254;-78
2021/04/09 11:28:29;;;;;;;8.73;4.10;;;;;;;14.04;27.55;100763.25;4363901;32;35494;-78
2021/04/09 11:31:01;;;;;;;8.15;4.22;;;;;;;14.30;27.56;100763.28;4377808;32;34323;-78
2021/04/09 11:33:39;;;;;;;6.18;3.78;;;;;;;13.96;27.65;100764.97;4377820;32;33880;-78
2021/04/09 11:36:39;;;;;;;6.93;4.37;;;;;;;14.18;27.78;100748.44;4377494;32;35315;-78